Time;durP1;ratioP1;P1;durP2;ratioP2;P2;SDS_P1;SDS_P2;PMS_P1;PMS_P2;Temp;Humidity;BMP_temperature;BMP_pressure;BME280_temperature;BME280_humidity;BME280_pressure;Samples;Min_cycle;Max_cycle;Signal;HPM_P1;HPM_P2
2021/08/09 00:01:10;;;;;;;9.73;5.65;;;14.20;99.90;;;;;;4139692;28;20498;-77
2021/08/09 00:03:10;;;;;;;14.88;6.28;;;14.10;99.90;;;;;;4136236;28;20097;-77
2021/08/09 00:05:11;;;;;;;17.13;6.65;;;14.10;99.90;;;;;;4131115;28;20033;-78
2021/08/09 00:07:12;;;;;;;12.25;5.70;;;14.10;99.90;;;;;;4139023;28;20490;-77
2021/08/09 00:09:13;;;;;;;12.65;6.47;;;14.00;99.90;;;;;;4137148;28;20031;-77
2021/08/09 00:11:13;;;;;;;16.40;6.25;;;14.00;99.90;;;;;;4135005;28;20112;-77
2021/08/09 00:13:14;;;;;;;15.25;6.18;;;14.10;99.90;;;;;;4138641;28;20042;-77
2021/08/09 00:15:15;;;;;;;17.50;5.40;;;14.00;99.90;;;;;;4133681;28;20034;-76
2021/08/09 00:17:15;;;;;;;16.10;5.65;;;14.00;99.90;;;;;;4134670;28;20498;-74
2021/08/09 00:19:16;;;;;;;17.17;7.93;;;13.90;99.90;;;;;;4142519;28;20025;-78
2021/08/09 00:21:19;;;;;;;20.70;6.70;;;13.80;99.90;;;;;;4141966;28;20034;-78
2021/08/09 00:23:20;;;;;;;;;;;13.70;99.90;;;;;;4146046;28;20030;-77
2021/08/09 00:25:21;;;;;;;23.00;5.88;;;13.90;99.90;;;;;;4142667;28;19921;-78
2021/08/09 00:27:22;;;;;;;17.98;7.20;;;14.00;99.90;;;;;;4147862;28;20030;-78
2021/08/09 00:29:22;;;;;;;15.30;6.00;;;13.90;99.90;;;;;;4154781;28;20042;-77
2021/08/09 00:31:23;;;;;;;17.30;8.07;;;13.90;99.90;;;;;;4132945;28;20031;-77
2021/08/09 00:33:24;;;;;;;18.92;6.13;;;13.90;99.90;;;;;;4136057;28;20030;-77
2021/08/09 00:35:25;;;;;;;20.83;7.32;;;14.00;99.90;;;;;;4135484;28;20409;-77
2021/08/09 00:37:26;;;;;;;19.88;5.93;;;14.00;99.90;;;;;;4134181;28;20026;-76
2021/08/09 00:39:27;;;;;;;16.08;6.10;;;14.00;99.90;;;;;;4136114;28;20041;-77
2021/08/09 00:41:27;;;;;;;16.27;7.57;;;13.90;99.90;;;;;;4140059;28;20581;-78
2021/08/09 00:43:28;;;;;;;14.02;6.10;;;13.90;99.90;;;;;;4143752;28;20058;-78
2021/08/09 00:45:28;;;;;;;13.57;6.85;;;13.80;99.90;;;;;;4131596;28;20062;-78
2021/08/09 00:47:29;;;;;;;17.42;7.10;;;13.80;99.90;;;;;;4135961;28;20033;-78
2021/08/09 00:49:30;;;;;;;17.92;6.28;;;13.80;99.90;;;;;;4131707;28;20757;-78
2021/08/09 00:51:31;;;;;;;17.00;8.63;;;13.80;99.90;;;;;;4134985;28;20072;-78
2021/08/09 00:53:33;;;;;;;14.98;6.28;;;13.80;99.90;;;;;;4142768;28;20064;-78
2021/08/09 00:55:33;;;;;;;10.60;6.63;;;13.90;99.90;;;;;;4139510;28;20537;-75
2021/08/09 00:57:35;;;;;;;10.77;6.45;;;13.90;99.90;;;;;;4133530;28;20065;-78
2021/08/09 00:59:36;;;;;;;15.95;6.93;;;13.90;99.90;;;;;;4134586;28;20065;-78
2021/08/09 01:01:37;;;;;;;12.25;5.97;;;13.90;99.90;;;;;;4133671;28;20385;-78
2021/08/09 01:03:37;;;;;;;9.07;4.82;;;13.80;99.90;;;;;;4140189;28;20057;-78
2021/08/09 01:05:39;;;;;;;13.80;6.57;;;13.80;99.90;;;;;;4135989;28;20456;-77
2021/08/09 01:08:13;;;;;;;19.88;6.82;;;13.80;99.90;;;;;;4125274;28;20512;-77
2021/08/09 01:10:27;;;;;;;13.38;5.38;;;13.80;99.90;;;;;;4131964;28;20069;-78
2021/08/09 01:12:48;;;;;;;13.40;6.00;;;13.90;99.90;;;;;;4131983;28;20058;-77
2021/08/09 01:14:50;;;;;;;12.43;5.80;;;13.90;99.90;;;;;;4132238;28;20496;-78
2021/08/09 01:16:51;;;;;;;14.82;5.72;;;13.90;99.90;;;;;;4134754;28;20026;-77
2021/08/09 01:18:56;;;;;;;18.02;7.75;;;13.90;99.90;;;;;;4135628;28;20034;-77
2021/08/09 01:20:59;;;;;;;19.23;6.25;;;13.80;99.90;;;;;;4135240;28;20426;-77
2021/08/09 01:23:33;;;;;;;21.90;5.75;;;13.80;99.90;;;;;;4132425;28;20097;-78
2021/08/09 01:25:57;;;;;;;19.20;5.95;;;13.90;99.90;;;;;;4135456;28;20096;-78
2021/08/09 01:28:00;;;;;;;19.02;6.68;;;13.90;99.90;;;;;;4140998;28;20034;-79
2021/08/09 01:30:05;;;;;;;12.80;5.60;;;13.90;99.90;;;;;;4134991;28;20125;-79
2021/08/09 01:32:06;;;;;;;16.13;5.43;;;13.90;99.90;;;;;;4141847;28;20385;-78
2021/08/09 01:34:08;;;;;;;20.65;5.95;;;14.00;99.90;;;;;;4131725;28;20034;-78
2021/08/09 01:36:10;;;;;;;18.13;5.70;;;14.00;99.90;;;;;;4145159;28;20045;-78
2021/08/09 01:38:11;;;;;;;10.43;5.50;;;13.90;99.90;;;;;;4143592;28;20045;-78
2021/08/09 01:40:13;;;;;;;13.05;5.90;;;14.00;99.90;;;;;;4133769;28;20096;-78
2021/08/09 01:42:16;;;;;;;23.52;6.40;;;14.00;99.90;;;;;;4131616;28;20035;-78
2021/08/09 01:44:18;;;;;;;14.25;5.75;;;14.00;99.90;;;;;;4133734;28;20026;-78
2021/08/09 01:46:19;;;;;;;14.63;6.00;;;13.90;99.90;;;;;;4132416;28;20549;-78
2021/08/09 01:48:21;;;;;;;11.35;6.30;;;13.80;99.90;;;;;;4139771;28;20029;-78
2021/08/09 01:50:22;;;;;;;18.75;6.32;;;13.80;99.90;;;;;;4133619;28;20808;-78
2021/08/09 01:52:24;;;;;;;16.30;6.20;;;13.80;99.90;;;;;;4137125;28;20022;-77
2021/08/09 01:54:24;;;;;;;21.17;8.05;;;13.90;99.90;;;;;;4134599;28;20030;-76
2021/08/09 01:56:25;;;;;;;11.80;5.35;;;13.90;99.90;;;;;;4133364;28;20108;-78
2021/08/09 01:58:27;;;;;;;15.63;7.13;;;13.80;99.90;;;;;;4132033;28;20037;-77
2021/08/09 02:00:29;;;;;;;12.98;5.50;;;13.80;99.90;;;;;;4139897;28;20057;-77
2021/08/09 02:02:31;;;;;;;10.57;5.53;;;13.80;99.90;;;;;;4132644;28;20041;-77
2021/08/09 02:04:32;;;;;;;16.77;5.70;;;13.70;99.90;;;;;;4132533;28;20033;-77
2021/08/09 02:06:33;;;;;;;23.10;6.38;;;13.70;99.90;;;;;;4132318;28;20277;-76
2021/08/09 02:08:35;;;;;;;10.82;5.35;;;13.80;99.90;;;;;;4131082;28;20042;-77
2021/08/09 02:10:36;;;;;;;19.73;6.25;;;13.80;99.90;;;;;;4134509;28;20113;-77
2021/08/09 02:13:02;;;;;;;8.93;4.65;;;13.80;99.90;;;;;;4133879;28;20041;-78
2021/08/09 02:15:04;;;;;;;12.02;5.57;;;13.90;99.90;;;;;;4142457;28;20064;-77
2021/08/09 02:17:18;;;;;;;16.35;6.55;;;13.80;99.90;;;;;;4132447;28;20177;-78
2021/08/09 02:19:28;;;;;;;12.00;5.20;;;13.70;99.90;;;;;;4132806;28;20038;-77
2021/08/09 02:21:34;;;;;;;21.50;6.75;;;13.80;99.90;;;;;;4134316;28;20066;-77
2021/08/09 02:23:43;;;;;;;16.40;7.15;;;13.90;99.90;;;;;;4129937;28;20512;-77
2021/08/09 02:25:47;;;;;;;18.92;6.75;;;13.90;99.90;;;;;;4134621;28;20026;-76
2021/08/09 02:28:06;;;;;;;16.02;6.10;;;13.90;99.90;;;;;;4131938;28;20038;-77
2021/08/09 02:30:08;;;;;;;18.60;6.35;;;14.00;99.90;;;;;;4142692;28;21451;-77
2021/08/09 02:32:10;;;;;;;18.52;5.63;;;13.90;99.90;;;;;;4141694;28;20097;-77
2021/08/09 02:34:13;;;;;;;12.52;5.53;;;13.90;99.90;;;;;;4129147;28;20027;-76
2021/08/09 02:36:14;;;;;;;10.30;4.95;;;13.80;99.90;;;;;;4144201;28;20026;-77
2021/08/09 02:38:15;;;;;;;8.88;4.53;;;14.00;99.90;;;;;;4130391;28;20119;-77
2021/08/09 02:40:17;;;;;;;16.45;5.85;;;14.10;99.90;;;;;;4142728;28;20092;-76
2021/08/09 02:42:18;;;;;;;20.27;6.38;;;14.30;99.90;;;;;;4131766;28;20498;-76
2021/08/09 02:44:19;;;;;;;12.32;5.78;;;14.20;99.90;;;;;;4135568;28;20088;-76
2021/08/09 02:46:20;;;;;;;17.15;6.82;;;14.30;99.90;;;;;;4132624;28;20421;-77
2021/08/09 02:48:21;;;;;;;13.57;5.47;;;14.20;99.90;;;;;;4147047;28;20044;-77
2021/08/09 02:50:22;;;;;;;12.55;5.60;;;14.10;99.90;;;;;;4130920;28;20169;-77
2021/08/09 02:52:22;;;;;;;20.15;8.27;;;14.10;99.90;;;;;;4133059;28;20582;-78
2021/08/09 02:54:24;;;;;;;14.98;6.10;;;14.10;99.90;;;;;;4130761;28;20031;-77
2021/08/09 02:56:26;;;;;;;13.55;6.10;;;14.00;99.90;;;;;;4133596;28;20449;-77
2021/08/09 02:58:28;;;;;;;20.80;5.60;;;14.00;99.90;;;;;;4133661;28;20062;-77
2021/08/09 03:00:29;;;;;;;19.05;6.25;;;14.00;99.90;;;;;;4134309;28;20034;-77
2021/08/09 03:02:32;;;;;;;15.70;5.45;;;14.10;99.90;;;;;;4132767;28;20366;-77
2021/08/09 03:04:35;;;;;;;14.55;5.32;;;14.20;99.90;;;;;;4131429;28;20413;-77
2021/08/09 03:06:37;;;;;;;14.10;5.97;;;14.20;99.90;;;;;;4134390;28;20117;-76
2021/08/09 03:08:38;;;;;;;14.65;5.35;;;14.20;99.90;;;;;;4137168;28;20034;-77
2021/08/09 03:10:40;;;;;;;18.30;7.53;;;14.20;99.90;;;;;;4137840;28;20037;-78
2021/08/09 03:12:42;;;;;;;19.02;7.55;;;14.00;99.90;;;;;;4130622;28;20034;-77
2021/08/09 03:14:50;;;;;;;14.60;5.30;;;14.00;99.90;;;;;;4131673;28;20041;-78
2021/08/09 03:16:53;;;;;;;18.85;5.63;;;14.00;99.90;;;;;;4130419;28;20061;-77
2021/08/09 03:18:54;;;;;;;20.70;6.47;;;14.10;99.90;;;;;;4132889;28;20038;-77
2021/08/09 03:20:55;;;;;;;15.73;5.20;;;14.00;99.90;;;;;;4131348;28;20038;-76
2021/08/09 03:22:56;;;;;;;18.13;6.35;;;14.00;99.90;;;;;;4132527;28;20442;-76
2021/08/09 03:24:56;;;;;;;13.50;5.70;;;14.00;99.90;;;;;;4134050;28;20056;-78
2021/08/09 03:26:58;;;;;;;13.00;5.28;;;14.00;99.90;;;;;;4138453;28;20109;-78
2021/08/09 03:28:59;;;;;;;13.43;6.60;;;13.90;99.90;;;;;;4132724;28;20034;-77
2021/08/09 03:31:02;;;;;;;10.93;5.30;;;13.90;99.90;;;;;;4130527;28;20492;-77
2021/08/09 03:33:03;;;;;;;15.07;6.00;;;13.90;99.90;;;;;;4135830;28;20417;-77
2021/08/09 03:35:04;;;;;;;18.80;6.10;;;13.90;99.90;;;;;;4130122;28;20029;-77
2021/08/09 03:37:05;;;;;;;16.33;6.05;;;13.90;99.90;;;;;;4131721;28;20053;-75
2021/08/09 03:39:06;;;;;;;17.40;5.10;;;13.80;99.90;;;;;;4140301;28;20030;-78
2021/08/09 03:41:06;;;;;;;21.85;6.45;;;13.80;99.90;;;;;;4133972;28;20050;-77
2021/08/09 03:43:07;;;;;;;17.77;5.75;;;13.80;99.90;;;;;;4139058;28;20058;-76
2021/08/09 03:45:08;;;;;;;22.00;7.03;;;13.80;99.90;;;;;;4137530;28;20118;-77
2021/08/09 03:47:09;;;;;;;13.15;5.43;;;13.90;99.90;;;;;;4139685;28;20069;-76
2021/08/09 03:49:10;;;;;;;10.73;4.97;;;14.00;99.90;;;;;;4134851;28;20502;-78
2021/08/09 03:51:10;;;;;;;10.75;5.10;;;14.10;99.90;;;;;;4136726;28;20496;-77
2021/08/09 03:53:11;;;;;;;10.85;5.20;;;14.10;99.90;;;;;;4135322;28;20034;-77
2021/08/09 03:55:12;;;;;;;20.42;5.85;;;14.00;99.90;;;;;;4138791;28;20409;-78
2021/08/09 03:57:12;;;;;;;19.73;6.82;;;13.90;99.90;;;;;;4133778;28;20026;-77
2021/08/09 03:59:13;;;;;;;11.00;4.55;;;13.90;99.90;;;;;;4137285;28;20053;-77
2021/08/09 04:01:14;;;;;;;17.20;5.97;;;13.90;99.90;;;;;;4134167;28;20482;-76
2021/08/09 04:03:14;;;;;;;10.25;4.93;;;13.90;99.90;;;;;;4134996;28;20049;-77
2021/08/09 04:05:15;;;;;;;20.48;6.20;;;13.80;99.90;;;;;;4135731;28;20133;-77
2021/08/09 04:07:16;;;;;;;15.90;6.38;;;13.90;99.90;;;;;;4134634;28;20054;-78
2021/08/09 04:09:16;;;;;;;16.42;6.70;;;13.80;99.90;;;;;;4133660;28;20018;-77
2021/08/09 04:11:17;;;;;;;13.30;5.47;;;13.80;99.90;;;;;;4134891;28;20505;-77
2021/08/09 04:13:19;;;;;;;14.32;6.05;;;13.80;99.90;;;;;;4134928;28;20161;-77
2021/08/09 04:15:19;;;;;;;10.88;6.00;;;13.70;99.90;;;;;;4136291;28;20049;-78
2021/08/09 04:17:20;;;;;;;17.45;6.40;;;13.70;99.90;;;;;;4136220;28;20025;-77
2021/08/09 04:19:20;;;;;;;11.73;6.13;;;13.60;99.90;;;;;;4135662;28;20039;-77
2021/08/09 04:21:21;;;;;;;17.20;6.45;;;13.70;99.90;;;;;;4135190;28;20112;-78
2021/08/09 04:23:22;;;;;;;19.35;7.32;;;13.60;99.90;;;;;;4134460;28;20034;-78
2021/08/09 04:25:24;;;;;;;13.85;5.95;;;13.70;99.90;;;;;;4148183;28;20084;-77
2021/08/09 04:27:25;;;;;;;15.18;5.68;;;13.70;99.90;;;;;;4134562;28;20441;-77
2021/08/09 04:29:26;;;;;;;14.38;6.05;;;13.70;99.90;;;;;;4138022;28;20041;-77
2021/08/09 04:31:26;;;;;;;15.38;6.43;;;13.70;99.90;;;;;;4135371;28;20022;-78
2021/08/09 04:33:27;;;;;;;14.82;6.40;;;13.70;99.90;;;;;;4135363;28;20050;-77
2021/08/09 04:35:28;;;;;;;11.05;6.15;;;13.70;99.90;;;;;;4133735;28;20038;-77
2021/08/09 04:37:28;;;;;;;22.83;6.40;;;13.80;99.90;;;;;;4135683;28;20042;-78
2021/08/09 04:39:29;;;;;;;15.45;5.85;;;13.80;99.90;;;;;;4140586;28;20508;-77
2021/08/09 04:41:30;;;;;;;14.95;6.10;;;13.80;99.90;;;;;;4133384;28;20046;-78
2021/08/09 04:43:30;;;;;;;18.48;5.90;;;13.80;99.90;;;;;;4133544;28;20049;-77
2021/08/09 04:45:31;;;;;;;19.90;6.70;;;13.90;99.90;;;;;;4134783;28;20035;-77
2021/08/09 04:47:31;;;;;;;15.20;5.75;;;13.90;99.90;;;;;;4136264;28;20520;-77
2021/08/09 04:49:32;;;;;;;16.23;5.90;;;13.90;99.90;;;;;;4138335;28;20034;-78
2021/08/09 04:51:33;;;;;;;12.68;5.60;;;13.90;99.90;;;;;;4138548;28;20117;-78
2021/08/09 04:53:33;;;;;;;15.98;4.63;;;13.90;99.90;;;;;;4141886;28;20037;-75
2021/08/09 04:55:34;;;;;;;13.32;6.10;;;14.00;99.90;;;;;;4131953;28;20065;-77
2021/08/09 04:57:35;;;;;;;18.30;6.20;;;14.20;99.90;;;;;;4132171;28;20038;-77
2021/08/09 04:59:36;;;;;;;15.50;5.88;;;14.20;99.90;;;;;;4136849;28;20398;-77
2021/08/09 05:01:36;;;;;;;18.48;5.68;;;14.30;99.90;;;;;;4132395;28;20049;-77
2021/08/09 05:03:39;;;;;;;34.15;6.38;;;14.30;99.90;;;;;;4135359;28;20161;-78
2021/08/09 05:05:45;;;;;;;17.23;6.05;;;14.30;99.90;;;;;;4141744;28;20037;-77
2021/08/09 05:07:46;;;;;;;19.85;5.55;;;14.30;99.90;;;;;;4134789;28;20035;-77
2021/08/09 05:09:46;;;;;;;16.20;5.30;;;14.30;99.90;;;;;;4132490;28;20049;-78
2021/08/09 05:11:47;;;;;;;17.98;5.97;;;14.30;99.90;;;;;;4134510;28;20536;-77
2021/08/09 05:13:48;;;;;;;24.02;6.30;;;14.30;99.90;;;;;;4136520;28;20041;-76
2021/08/09 05:15:48;;;;;;;12.27;6.35;;;14.20;99.90;;;;;;4141008;28;20379;-77
2021/08/09 05:17:49;;;;;;;22.08;7.45;;;14.20;99.90;;;;;;4133815;28;20042;-77
2021/08/09 05:19:50;;;;;;;15.95;6.50;;;14.20;99.90;;;;;;4134378;28;20386;-77
2021/08/09 05:21:51;;;;;;;14.07;5.47;;;14.20;99.90;;;;;;4133719;28;20053;-76
2021/08/09 05:23:52;;;;;;;23.25;6.75;;;14.30;99.90;;;;;;4134568;28;20153;-77
2021/08/09 05:25:52;;;;;;;14.00;5.65;;;14.30;99.90;;;;;;4135269;28;20525;-77
2021/08/09 05:27:53;;;;;;;14.02;5.72;;;14.20;99.90;;;;;;4134299;28;20038;-77
2021/08/09 05:29:53;;;;;;;12.23;5.78;;;14.30;99.90;;;;;;4136929;28;20393;-77
2021/08/09 05:31:54;;;;;;;16.75;6.75;;;14.40;99.90;;;;;;4132154;28;20064;-77
2021/08/09 05:33:57;;;;;;;13.73;6.20;;;14.40;99.90;;;;;;4133288;28;20445;-77
2021/08/09 05:35:58;;;;;;;15.27;6.13;;;14.40;99.90;;;;;;4131907;28;20049;-77
2021/08/09 05:37:59;;;;;;;17.52;6.72;;;14.40;99.90;;;;;;4137342;28;20047;-77
2021/08/09 05:40:01;;;;;;;14.05;5.55;;;14.30;99.90;;;;;;4137376;28;20030;-77
2021/08/09 05:42:02;;;;;;;17.30;6.78;;;14.20;99.90;;;;;;4133896;28;20057;-76
2021/08/09 05:44:03;;;;;;;16.63;6.18;;;14.10;99.90;;;;;;4135514;28;20029;-76
2021/08/09 05:46:03;;;;;;;24.40;6.50;;;14.00;99.90;;;;;;4133018;28;20113;-77
2021/08/09 05:48:04;;;;;;;11.73;6.05;;;13.90;99.90;;;;;;4134854;28;20114;-77
2021/08/09 05:50:05;;;;;;;19.35;6.55;;;14.00;99.90;;;;;;4138464;28;20043;-77
2021/08/09 05:52:06;;;;;;;14.30;5.95;;;14.00;99.90;;;;;;4133214;28;20518;-77
2021/08/09 05:54:08;;;;;;;17.20;5.22;;;14.00;99.90;;;;;;4142417;28;20029;-76
2021/08/09 05:56:09;;;;;;;27.65;7.57;;;14.00;99.90;;;;;;4138463;28;20042;-77
2021/08/09 05:58:10;;;;;;;13.10;5.47;;;14.10;99.90;;;;;;4146340;28;20022;-76
2021/08/09 06:00:10;;;;;;;19.73;7.47;;;14.00;99.90;;;;;;4135026;28;20038;-76
2021/08/09 06:02:13;;;;;;;14.73;6.13;;;14.00;99.90;;;;;;4131603;28;20027;-78
2021/08/09 06:04:15;;;;;;;15.80;6.15;;;13.90;99.90;;;;;;4135330;28;20022;-78
2021/08/09 06:06:19;;;;;;;16.02;6.65;;;13.90;99.90;;;;;;4136155;28;20038;-74
2021/08/09 06:08:20;;;;;;;10.88;6.10;;;13.90;99.90;;;;;;4132501;28;20374;-78
2021/08/09 06:10:22;;;;;;;16.95;6.53;;;13.90;99.90;;;;;;4137187;28;20054;-77
2021/08/09 06:12:22;;;;;;;18.60;7.13;;;13.90;99.90;;;;;;4140959;28;20052;-76
2021/08/09 06:14:23;;;;;;;12.77;7.18;;;13.90;99.90;;;;;;4141555;28;20062;-77
2021/08/09 06:16:25;;;;;;;13.75;5.80;;;13.90;99.90;;;;;;4131998;28;20189;-77
2021/08/09 06:18:25;;;;;;;18.05;7.05;;;14.00;99.90;;;;;;4133255;28;21771;-77
2021/08/09 06:20:26;;;;;;;13.18;6.68;;;14.00;99.90;;;;;;4130875;28;20042;-77
2021/08/09 06:22:27;;;;;;;12.63;6.72;;;14.10;99.90;;;;;;4137013;28;20045;-76
2021/08/09 06:24:28;;;;;;;12.93;5.43;;;14.20;99.90;;;;;;4132631;28;20053;-77
2021/08/09 06:26:28;;;;;;;24.65;7.10;;;14.30;99.90;;;;;;4133951;28;20050;-77
2021/08/09 06:28:29;;;;;;;19.42;7.30;;;14.40;99.90;;;;;;4132269;28;20084;-76
2021/08/09 06:30:29;;;;;;;11.32;5.75;;;14.50;99.90;;;;;;4138752;28;20042;-76
2021/08/09 06:32:30;;;;;;;11.48;6.13;;;14.60;99.90;;;;;;4133285;28;20037;-76
2021/08/09 06:34:31;;;;;;;14.75;5.95;;;14.70;99.90;;;;;;4139188;28;20116;-77
2021/08/09 06:36:32;;;;;;;11.05;5.28;;;14.80;99.90;;;;;;4141295;28;20486;-77
2021/08/09 06:38:32;;;;;;;14.93;5.57;;;14.80;99.90;;;;;;4143012;28;20033;-77
2021/08/09 06:40:34;;;;;;;14.15;5.40;;;15.00;99.90;;;;;;4138957;28;20498;-76
2021/08/09 06:42:35;;;;;;;13.95;5.82;;;15.00;99.90;;;;;;4131281;28;20038;-77
2021/08/09 06:44:36;;;;;;;10.68;5.60;;;15.10;99.90;;;;;;4137918;28;20089;-76
2021/08/09 06:46:36;;;;;;;11.13;5.38;;;15.20;99.90;;;;;;4140049;28;20077;-77
2021/08/09 06:48:37;;;;;;;13.98;6.07;;;15.30;99.90;;;;;;4136643;28;20064;-78
2021/08/09 06:50:39;;;;;;;13.93;5.85;;;15.40;99.90;;;;;;4131702;28;20452;-77
2021/08/09 06:52:40;;;;;;;8.38;5.10;;;15.60;99.90;;;;;;4132445;28;20041;-76
2021/08/09 06:54:40;;;;;;;11.77;5.60;;;15.60;99.90;;;;;;4134407;28;20041;-78
2021/08/09 06:56:41;;;;;;;11.50;5.45;;;15.80;99.90;;;;;;4133380;28;20045;-76
2021/08/09 06:58:42;;;;;;;19.73;6.20;;;15.90;99.90;;;;;;4134977;28;20034;-77
2021/08/09 07:00:43;;;;;;;11.90;5.75;;;15.80;99.90;;;;;;4132653;28;20041;-77
2021/08/09 07:02:43;;;;;;;10.80;6.53;;;15.80;99.90;;;;;;4131403;28;20386;-77
2021/08/09 07:04:44;;;;;;;9.57;5.55;;;15.80;99.90;;;;;;4131341;28;20034;-77
2021/08/09 07:06:49;;;;;;;12.98;5.97;;;15.90;99.90;;;;;;4134921;28;20076;-77
2021/08/09 07:08:51;;;;;;;13.15;5.82;;;15.90;99.90;;;;;;4131818;28;20057;-77
2021/08/09 07:10:52;;;;;;;14.07;6.38;;;16.00;99.90;;;;;;4131356;28;20044;-75
2021/08/09 07:12:54;;;;;;;16.95;7.38;;;16.10;99.90;;;;;;4129187;28;20030;-76
2021/08/09 07:14:55;;;;;;;13.03;4.87;;;16.20;99.90;;;;;;4131584;28;20043;-77
2021/08/09 07:16:58;;;;;;;12.60;6.07;;;16.20;99.90;;;;;;4137497;28;20038;-75
2021/08/09 07:18:58;;;;;;;9.95;5.28;;;16.40;99.90;;;;;;4133607;28;20040;-76
2021/08/09 07:21:00;;;;;;;8.48;5.40;;;16.50;99.90;;;;;;4135880;28;20062;-77
2021/08/09 07:23:01;;;;;;;15.93;6.88;;;16.50;99.90;;;;;;4140632;28;20511;-77
2021/08/09 07:25:01;;;;;;;16.08;5.93;;;16.60;99.90;;;;;;4139461;28;20179;-76
2021/08/09 07:27:02;;;;;;;17.48;5.93;;;16.70;99.90;;;;;;4134250;28;20022;-75
2021/08/09 07:29:03;;;;;;;16.73;5.25;;;16.80;99.90;;;;;;4135679;28;20042;-76
2021/08/09 07:31:04;;;;;;;14.38;5.35;;;16.80;99.90;;;;;;4134569;28;20034;-76
2021/08/09 07:33:05;;;;;;;15.27;5.35;;;16.80;99.90;;;;;;4136628;28;20183;-76
2021/08/09 07:35:07;;;;;;;13.10;5.28;;;16.90;99.90;;;;;;4139033;28;20527;-76
2021/08/09 07:37:08;;;;;;;8.45;4.55;;;17.00;99.90;;;;;;4139679;28;20058;-76
2021/08/09 07:39:08;;;;;;;15.23;4.82;;;17.00;99.90;;;;;;4133767;28;20035;-76
2021/08/09 07:41:10;;;;;;;12.52;4.50;;;17.10;99.90;;;;;;4145507;28;20060;-76
2021/08/09 07:43:11;;;;;;;10.65;4.43;;;17.30;99.90;;;;;;4139707;28;20126;-76
2021/08/09 07:45:12;;;;;;;10.60;4.82;;;17.30;99.90;;;;;;4134788;28;20061;-76
2021/08/09 07:47:12;;;;;;;17.85;4.80;;;17.40;99.90;;;;;;4134986;28;20031;-77
2021/08/09 07:49:13;;;;;;;10.95;4.07;;;17.40;99.90;;;;;;4138011;28;20112;-77
2021/08/09 07:51:14;;;;;;;14.23;4.30;;;17.50;99.90;;;;;;4138799;28;20029;-76
2021/08/09 07:53:14;;;;;;;11.48;4.63;;;17.60;99.90;;;;;;4141833;28;20096;-77
2021/08/09 07:55:15;;;;;;;14.00;4.80;;;17.70;99.90;;;;;;4135852;28;20109;-77
2021/08/09 07:57:16;;;;;;;7.50;3.47;;;17.80;99.90;;;;;;4134772;28;20053;-77
2021/08/09 07:59:17;;;;;;;9.05;4.10;;;18.00;99.90;;;;;;4136146;28;20066;-76
2021/08/09 08:01:17;;;;;;;6.03;2.97;;;18.10;99.90;;;;;;4157549;28;20125;-75
2021/08/09 08:03:18;;;;;;;10.43;5.22;;;18.30;99.90;;;;;;4136603;28;20035;-74
2021/08/09 08:05:19;;;;;;;8.77;3.88;;;18.40;99.90;;;;;;4141320;28;20486;-76
2021/08/09 08:07:19;;;;;;;9.02;3.60;;;18.40;99.90;;;;;;4137429;28;20034;-77
2021/08/09 08:09:20;;;;;;;6.45;3.90;;;18.40;99.90;;;;;;4145040;28;20034;-78
2021/08/09 08:11:21;;;;;;;13.60;4.13;;;18.50;99.90;;;;;;4138944;28;20096;-77
2021/08/09 08:13:22;;;;;;;8.30;4.47;;;18.60;99.90;;;;;;4137670;28;20042;-76
2021/08/09 08:15:22;;;;;;;7.65;4.22;;;18.80;99.90;;;;;;4139715;28;20078;-77
2021/08/09 08:17:23;;;;;;;7.50;2.80;;;18.90;99.90;;;;;;4143921;28;20136;-77
2021/08/09 08:19:24;;;;;;;7.15;2.83;;;19.30;99.90;;;;;;4133272;28;20042;-77
2021/08/09 08:21:25;;;;;;;8.93;3.60;;;19.40;99.90;;;;;;4136621;28;20042;-77
2021/08/09 08:23:26;;;;;;;8.07;3.58;;;19.40;99.90;;;;;;4137892;28;20683;-77
2021/08/09 08:25:26;;;;;;;7.38;3.47;;;19.30;99.90;;;;;;4141718;28;20070;-78
2021/08/09 08:27:27;;;;;;;5.13;3.22;;;19.50;99.90;;;;;;4136743;28;20034;-76
2021/08/09 08:29:28;;;;;;;18.88;9.25;;;19.50;99.90;;;;;;4133877;28;20636;-76
2021/08/09 08:31:29;;;;;;;10.35;4.13;;;19.60;99.90;;;;;;4133559;28;20393;-76
2021/08/09 08:33:30;;;;;;;10.20;3.55;;;19.60;99.90;;;;;;4135280;28;20062;-76
2021/08/09 08:35:31;;;;;;;8.30;3.38;;;19.60;99.90;;;;;;4134691;28;20088;-76
2021/08/09 08:37:32;;;;;;;8.05;2.88;;;;;;;;;;4140650;28;20042;-77
2021/08/09 08:39:33;;;;;;;6.75;3.50;;;20.00;99.90;;;;;;4132694;28;20121;-78
2021/08/09 08:41:34;;;;;;;8.48;3.88;;;20.10;99.90;;;;;;4136812;28;20058;-77
2021/08/09 08:43:35;;;;;;;9.57;3.90;;;20.20;99.90;;;;;;4133908;28;20118;-78
2021/08/09 08:45:36;;;;;;;7.05;3.78;;;20.20;99.90;;;;;;4139705;28;20053;-77
2021/08/09 08:47:38;;;;;;;10.32;3.92;;;20.40;99.90;;;;;;4137107;28;20030;-78
2021/08/09 08:49:39;;;;;;;10.95;3.80;;;20.60;99.90;;;;;;4143998;28;20038;-74
2021/08/09 08:51:42;;;;;;;6.93;3.50;;;20.80;99.90;;;;;;4138990;28;20389;-76
2021/08/09 08:53:45;;;;;;;6.88;3.75;;;20.80;99.90;;;;;;4134215;28;20382;-75
2021/08/09 08:55:46;;;;;;;9.98;3.70;;;20.60;99.90;;;;;;4136388;28;20092;-78
2021/08/09 08:57:47;;;;;;;9.43;3.97;;;20.50;99.90;;;;;;4143551;28;20041;-77
2021/08/09 08:59:48;;;;;;;11.52;3.72;;;20.70;99.90;;;;;;4136707;28;20484;-78
2021/08/09 09:01:51;;;;;;;8.30;3.63;;;20.80;99.90;;;;;;4139214;28;20045;-78
2021/08/09 09:03:52;;;;;;;6.45;3.33;;;20.90;99.90;;;;;;4138762;28;20042;-78
2021/08/09 09:05:59;;;;;;;10.43;4.15;;;21.10;99.90;;;;;;4136434;28;20473;-79
2021/08/09 09:07:59;;;;;;;6.47;3.70;;;21.30;99.90;;;;;;4135995;28;20037;-79
2021/08/09 09:10:35;;;;;;;7.45;4.13;;;21.50;99.90;;;;;;4144779;28;20670;-78
2021/08/09 09:12:36;;;;;;;8.63;3.88;;;21.40;99.90;;;;;;4145336;28;20425;-78
2021/08/09 09:14:37;;;;;;;8.88;4.15;;;21.40;99.90;;;;;;4138479;28;20066;-78
2021/08/09 09:16:44;;;;;;;7.22;3.42;;;21.70;99.90;;;;;;4141615;28;20042;-78
2021/08/09 09:18:51;;;;;;;6.88;3.33;;;21.90;99.90;;;;;;4135777;28;20042;-78
2021/08/09 09:20:52;;;;;;;8.75;4.22;;;21.70;99.90;;;;;;4136697;28;20042;-78
2021/08/09 09:23:13;;;;;;;6.57;3.10;;;21.70;99.90;;;;;;4136360;28;20045;-78
2021/08/09 09:25:13;;;;;;;6.75;2.83;;;21.90;99.90;;;;;;4154536;28;20041;-78
2021/08/09 09:27:29;;;;;;;9.77;3.85;;;21.80;99.90;;;;;;4134899;28;20034;-78
2021/08/09 09:29:38;;;;;;;7.15;3.33;;;21.70;99.90;;;;;;4132094;28;20049;-77
2021/08/09 09:31:40;;;;;;;5.30;3.17;;;21.60;99.90;;;;;;4130547;28;20030;-78
2021/08/09 09:33:48;;;;;;;10.02;3.22;;;21.50;99.90;;;;;;4134865;28;20042;-76
2021/08/09 09:35:50;;;;;;;10.57;3.25;;;21.40;99.90;;;;;;4131353;28;20039;-78
2021/08/09 09:37:51;;;;;;;5.38;3.45;;;21.50;99.90;;;;;;4132215;28;20038;-77
2021/08/09 09:39:52;;;;;;;9.90;4.05;;;21.40;99.90;;;;;;4134397;28;20068;-77
2021/08/09 09:41:55;;;;;;;8.85;3.42;;;21.50;99.90;;;;;;4135136;28;20093;-78
2021/08/09 09:43:56;;;;;;;7.18;4.35;;;21.90;99.90;;;;;;4133161;28;20126;-77
2021/08/09 09:45:58;;;;;;;7.03;3.17;;;22.50;99.90;;;;;;4133653;28;20042;-78
2021/08/09 09:48:02;;;;;;;7.82;3.42;;;23.10;99.90;;;;;;4132698;28;20042;-77
2021/08/09 09:50:03;;;;;;;6.45;3.05;;;23.40;99.90;;;;;;4155345;28;20034;-78
2021/08/09 09:52:03;;;;;;;3.88;3.05;;;23.30;99.90;;;;;;4134932;28;20160;-81
2021/08/09 09:54:09;;;;;;;9.50;3.47;;;23.10;99.90;;;;;;4138530;28;20424;-81
2021/08/09 09:56:10;;;;;;;6.95;4.05;;;23.00;99.90;;;;;;4137054;28;20088;-82
2021/08/09 09:58:11;;;;;;;10.65;3.72;;;22.80;99.90;;;;;;4144375;28;20052;-80
2021/08/09 10:00:14;;;;;;;11.32;3.15;;;22.50;99.90;;;;;;4135101;28;20045;-81
2021/08/09 10:02:15;;;;;;;7.75;4.10;;;22.30;99.90;;;;;;4147685;28;20077;-80
2021/08/09 10:04:16;;;;;;;5.65;3.00;;;22.30;99.90;;;;;;4138013;28;20034;-79
2021/08/09 10:06:18;;;;;;;5.70;2.97;;;22.30;99.90;;;;;;4132757;28;20026;-80
2021/08/09 10:08:19;;;;;;;6.60;3.15;;;22.10;99.90;;;;;;4136839;28;20037;-79
2021/08/09 10:10:23;;;;;;;5.53;3.50;;;21.90;99.90;;;;;;4134806;28;20100;-80
2021/08/09 10:12:29;;;;;;;8.23;2.92;;;21.80;99.90;;;;;;4131689;28;20033;-80
2021/08/09 10:14:33;;;;;;;8.07;3.33;;;21.70;99.90;;;;;;4131019;28;20096;-80
2021/08/09 10:16:35;;;;;;;6.38;2.97;;;21.80;99.90;;;;;;4132549;28;20061;-80
2021/08/09 10:18:39;;;;;;;5.35;3.42;;;21.90;99.90;;;;;;4133607;28;20038;-79
2021/08/09 10:20:39;;;;;;;6.18;3.38;;;21.80;99.90;;;;;;4138882;28;20040;-79
2021/08/09 10:22:40;;;;;;;5.75;2.80;;;21.40;99.90;;;;;;4133768;28;20026;-81
2021/08/09 10:24:42;;;;;;;7.63;3.47;;;21.40;99.90;;;;;;4137955;28;20034;-78
2021/08/09 10:26:47;;;;;;;5.03;2.72;;;21.20;99.90;;;;;;4141165;28;20030;-78
2021/08/09 10:28:51;;;;;;;5.50;3.30;;;21.40;99.90;;;;;;4131846;28;20042;-79
2021/08/09 10:30:52;;;;;;;5.38;2.88;;;21.30;99.90;;;;;;4137288;28;20034;-80